Time;durP1;ratioP1;P1;durP2;ratioP2;P2;SDS_P1;SDS_P2;PMS_P1;PMS_P2;Temp;Humidity;BMP_temperature;BMP_pressure;BME280_temperature;BME280_humidity;BME280_pressure;Samples;Min_cycle;Max_cycle;Signal;HPM_P1;HPM_P2
2023/03/15 00:03:03;;;;;;;8.25;1.77;;;1.80;99.90;;;;;;15420738;23;20013;-37
2023/03/15 00:09:04;;;;;;;14.65;1.92;;;1.70;99.90;;;;;;15422134;23;20024;-38
2023/03/15 00:15:07;;;;;;;7.20;1.60;;;1.70;99.90;;;;;;15419379;23;20028;-37
2023/03/15 00:21:09;;;;;;;12.75;1.40;;;1.70;99.90;;;;;;15420224;23;20359;-37
2023/03/15 00:27:10;;;;;;;6.78;1.73;;;1.80;99.90;;;;;;15417532;23;20052;-37
2023/03/15 00:33:14;;;;;;;10.68;1.48;;;1.80;99.90;;;;;;15420947;23;20032;-37
2023/03/15 00:39:16;;;;;;;9.53;1.47;;;1.80;99.90;;;;;;15419933;23;20123;-37
2023/03/15 00:45:20;;;;;;;16.27;2.83;;;1.80;99.90;;;;;;15424613;23;20385;-37
2023/03/15 00:51:23;;;;;;;7.65;1.35;;;1.90;99.90;;;;;;15426755;23;20021;-37
2023/03/15 00:57:25;;;;;;;13.88;2.10;;;2.00;99.90;;;;;;15425679;23;20024;-37
2023/03/15 01:03:28;;;;;;;11.15;1.88;;;2.10;99.90;;;;;;15425939;23;20028;-37
2023/03/15 01:09:31;;;;;;;13.55;1.58;;;2.10;99.90;;;;;;15424019;23;20021;-38
2023/03/15 01:15:33;;;;;;;9.07;1.30;;;2.20;99.90;;;;;;15425599;23;20085;-38
2023/03/15 01:21:34;;;;;;;10.60;1.45;;;2.20;99.90;;;;;;15424387;23;20074;-38
2023/03/15 01:27:36;;;;;;;9.05;1.35;;;2.30;99.90;;;;;;15424893;23;20096;-38
2023/03/15 01:33:38;;;;;;;10.02;2.10;;;2.40;99.90;;;;;;15424330;23;20021;-38
2023/03/15 01:39:40;;;;;;;6.28;1.40;;;2.30;99.90;;;;;;15422493;23;20024;-38
2023/03/15 01:46:00;;;;;;;7.85;1.40;;;2.30;99.90;;;;;;15423296;23;20038;-38
2023/03/15 01:52:08;;;;;;;6.63;1.55;;;2.40;99.90;;;;;;15424377;23;20151;-37
2023/03/15 01:58:11;;;;;;;11.50;2.53;;;2.10;99.90;;;;;;15424298;23;20016;-38
2023/03/15 02:04:23;;;;;;;10.35;1.92;;;2.00;99.90;;;;;;15424451;23;20099;-38
2023/03/15 02:10:31;;;;;;;7.13;1.95;;;2.00;99.90;;;;;;15419291;23;20021;-38
2023/03/15 02:16:33;;;;;;;16.33;3.05;;;1.90;99.90;;;;;;15423608;23;20358;-38
2023/03/15 02:23:08;;;;;;;9.07;1.98;;;1.90;99.90;;;;;;15423803;23;20021;-38
2023/03/15 02:29:10;;;;;;;9.63;2.00;;;1.80;99.90;;;;;;15423730;23;20067;-39
2023/03/15 02:35:22;;;;;;;7.45;2.15;;;1.80;99.90;;;;;;15420554;23;20024;-37
2023/03/15 02:41:27;;;;;;;7.55;2.58;;;1.90;99.90;;;;;;15419627;23;20600;-37
2023/03/15 02:47:32;;;;;;;6.72;2.22;;;1.90;99.90;;;;;;15422602;23;20376;-38
2023/03/15 02:53:34;;;;;;;3.95;2.13;;;1.90;99.90;;;;;;15423334;23;20028;-39
2023/03/15 02:59:36;;;;;;;4.60;1.70;;;2.00;99.90;;;;;;15422520;23;20048;-38
2023/03/15 03:05:38;;;;;;;5.50;2.20;;;2.10;99.90;;;;;;15421268;23;20499;-37
2023/03/15 03:11:40;;;;;;;4.22;2.10;;;2.10;99.90;;;;;;15419496;23;20051;-37
2023/03/15 03:17:42;;;;;;;7.57;3.58;;;2.20;99.90;;;;;;15420076;23;20359;-37
2023/03/15 03:23:45;;;;;;;5.50;2.45;;;2.10;99.90;;;;;;15410500;23;20103;-37
2023/03/15 03:29:47;;;;;;;6.10;3.08;;;1.90;99.90;;;;;;15412770;23;20020;-37
2023/03/15 03:35:49;;;;;;;8.45;3.08;;;1.70;99.90;;;;;;15418608;23;20035;-37
2023/03/15 03:41:51;;;;;;;6.03;2.47;;;1.80;99.90;;;;;;15419500;23;20075;-37
2023/03/15 03:47:53;;;;;;;7.20;3.20;;;1.90;99.90;;;;;;15420374;23;20021;-37
2023/03/15 03:53:54;;;;;;;7.68;3.42;;;1.90;99.90;;;;;;15414829;23;20020;-37
2023/03/15 03:59:57;;;;;;;5.82;3.10;;;1.90;99.90;;;;;;15417012;23;20087;-37
2023/03/15 04:06:00;;;;;;;7.82;3.15;;;1.80;99.90;;;;;;15420010;23;20064;-37
2023/03/15 04:12:07;;;;;;;6.75;3.60;;;1.80;99.90;;;;;;15411660;23;20025;-37
2023/03/15 04:18:08;;;;;;;8.55;3.80;;;1.80;99.90;;;;;;15420209;23;20025;-37
2023/03/15 04:24:10;;;;;;;6.47;3.10;;;1.80;99.90;;;;;;15417621;23;20029;-37
2023/03/15 04:30:13;;;;;;;8.43;3.47;;;1.80;99.90;;;;;;15423711;23;20067;-37
2023/03/15 04:36:17;;;;;;;5.20;3.17;;;1.90;99.90;;;;;;15412420;23;20032;-37
2023/03/15 04:42:19;;;;;;;6.13;3.37;;;1.90;99.90;;;;;;15427984;23;20091;-37
2023/03/15 04:48:21;;;;;;;8.27;3.53;;;1.90;99.90;;;;;;15420670;23;20024;-36
2023/03/15 04:54:23;;;;;;;8.13;3.33;;;2.00;99.90;;;;;;15423814;23;20028;-38
2023/03/15 05:00:26;;;;;;;8.00;3.65;;;2.00;99.90;;;;;;15424443;23;20024;-38
2023/03/15 05:06:29;;;;;;;8.65;3.95;;;1.90;99.90;;;;;;15420935;23;20025;-38
2023/03/15 05:12:32;;;;;;;7.28;4.20;;;1.90;99.90;;;;;;15425394;23;20359;-37
2023/03/15 05:18:34;;;;;;;6.60;3.70;;;1.90;99.90;;;;;;15424930;23;20522;-37
2023/03/15 05:24:36;;;;;;;9.00;4.30;;;1.90;99.90;;;;;;15424785;23;20035;-38
2023/03/15 05:30:38;;;;;;;9.15;3.80;;;1.90;99.90;;;;;;15425444;23;20024;-37
2023/03/15 05:36:40;;;;;;;6.90;3.88;;;2.00;99.90;;;;;;15423668;23;20100;-38
2023/03/15 05:42:42;;;;;;;7.35;3.92;;;2.00;99.90;;;;;;15423485;23;20034;-38
2023/03/15 05:48:44;;;;;;;11.07;4.25;;;2.00;99.90;;;;;;15416683;23;20017;-38
2023/03/15 05:54:46;;;;;;;7.80;4.40;;;2.00;99.90;;;;;;15425128;23;20103;-38
2023/03/15 06:00:48;;;;;;;8.70;4.78;;;2.00;99.90;;;;;;15421781;23;20031;-37
2023/03/15 06:06:51;;;;;;;12.75;5.80;;;2.00;99.90;;;;;;15423375;23;20024;-38
2023/03/15 06:12:54;;;;;;;11.18;5.85;;;2.00;99.90;;;;;;15423352;23;20171;-38
2023/03/15 06:19:08;;;;;;;16.80;6.03;;;2.00;99.90;;;;;;15424279;23;20028;-38
2023/03/15 06:25:10;;;;;;;9.50;6.03;;;2.00;99.90;;;;;;15422977;23;20056;-38
2023/03/15 06:31:13;;;;;;;8.20;5.57;;;2.10;99.90;;;;;;15425293;23;20024;-38
2023/03/15 06:37:15;;;;;;;9.73;6.15;;;2.00;99.90;;;;;;15424886;23;20031;-38
2023/03/15 06:43:35;;;;;;;9.02;5.40;;;2.10;99.90;;;;;;15423857;23;20052;-37
2023/03/15 06:49:37;;;;;;;9.40;5.32;;;2.10;99.90;;;;;;15422098;23;20529;-38
2023/03/15 06:55:39;;;;;;;10.18;5.00;;;2.30;99.90;;;;;;15414330;23;20079;-37
2023/03/15 07:01:41;;;;;;;11.20;5.72;;;2.40;99.90;;;;;;15422346;23;20013;-37
2023/03/15 07:07:43;;;;;;;12.90;5.15;;;2.60;99.90;;;;;;15425247;23;20151;-38
2023/03/15 07:13:45;;;;;;;9.70;4.63;;;2.60;99.90;;;;;;15422476;23;20048;-38
2023/03/15 07:19:47;;;;;;;9.40;4.68;;;2.60;99.90;;;;;;15423935;23;20109;-38
2023/03/15 07:25:57;;;;;;;9.88;4.53;;;2.60;99.90;;;;;;15423520;23;20025;-39
2023/03/15 07:32:00;;;;;;;9.95;4.07;;;2.60;99.90;;;;;;15425169;23;20020;-37
2023/03/15 07:38:02;;;;;;;12.75;3.58;;;2.60;99.90;;;;;;15425030;23;20024;-38
2023/03/15 07:44:04;;;;;;;12.30;5.00;;;2.80;99.90;;;;;;15425387;23;20107;-38
2023/03/15 07:50:06;;;;;;;10.55;3.97;;;2.90;99.90;;;;;;15423958;23;20027;-38
2023/03/15 07:56:08;;;;;;;9.20;3.80;;;3.10;99.90;;;;;;15384536;23;20020;-38
2023/03/15 08:02:18;;;;;;;12.57;3.63;;;3.00;99.90;;;;;;15419353;23;20473;-38
2023/03/15 08:08:20;;;;;;;10.70;3.97;;;3.30;99.90;;;;;;15425031;23;20359;-38
2023/03/15 08:14:23;;;;;;;8.88;3.70;;;3.40;99.90;;;;;;15422432;23;20024;-39
2023/03/15 08:20:26;;;;;;;12.02;4.47;;;3.80;99.90;;;;;;15418561;23;20031;-38
2023/03/15 08:26:30;;;;;;;7.75;4.97;;;4.20;99.90;;;;;;15423702;23;20024;-38
2023/03/15 08:32:32;;;;;;;10.35;3.60;;;4.30;99.90;;;;;;15426309;23;20021;-38
2023/03/15 08:38:34;;;;;;;14.75;4.22;;;3.60;99.90;;;;;;15424928;23;20024;-37
2023/03/15 08:44:36;;;;;;;7.60;3.90;;;3.60;99.90;;;;;;15421311;23;20085;-38
2023/03/15 08:50:38;;;;;;;14.73;4.55;;;4.10;99.90;;;;;;15423111;23;20025;-38
2023/03/15 08:56:41;;;;;;;13.63;4.00;;;4.50;99.90;;;;;;15423982;23;20533;-38
2023/03/15 09:02:44;;;;;;;10.95;4.03;;;4.60;99.90;;;;;;15425228;23;20035;-38
2023/03/15 09:08:46;;;;;;;14.65;3.60;;;5.00;99.90;;;;;;15427607;23;20017;-38
2023/03/15 09:14:47;;;;;;;11.27;3.25;;;5.10;99.90;;;;;;15423115;23;20024;-38
2023/03/15 09:20:49;;;;;;;12.63;3.13;;;4.60;99.90;;;;;;15424855;23;20031;-37
2023/03/15 09:26:51;;;;;;;10.05;3.33;;;4.80;99.90;;;;;;15427671;23;20467;-38
2023/03/15 09:32:53;;;;;;;8.95;3.17;;;5.20;99.90;;;;;;15427487;23;20130;-38
2023/03/15 09:38:56;;;;;;;12.55;3.00;;;5.50;99.90;;;;;;15427588;23;20017;-38
2023/03/15 09:45:12;;;;;;;8.50;2.45;;;5.30;99.90;;;;;;15424185;23;20358;-38
2023/03/15 09:51:29;;;;;;;10.10;2.40;;;5.50;99.90;;;;;;15427480;23;20051;-38
2023/03/15 09:57:56;;;;;;;8.27;2.00;;;6.20;99.90;;;;;;15428997;23;20394;-38
2023/03/15 10:04:06;;;;;;;8.63;1.98;;;6.10;99.90;;;;;;15423460;23;20111;-38
2023/03/15 10:10:19;;;;;;;8.00;1.90;;;6.10;99.90;;;;;;15425279;23;20083;-38
2023/03/15 10:16:27;;;;;;;7.15;1.73;;;5.90;99.90;;;;;;15423488;23;20094;-39
2023/03/15 10:22:32;;;;;;;7.15;1.75;;;6.10;99.90;;;;;;15426093;23;20020;-39
2023/03/15 10:28:36;;;;;;;9.85;1.80;;;6.50;99.90;;;;;;15427718;23;20143;-38
2023/03/15 10:34:38;;;;;;;9.52;1.90;;;6.30;99.90;;;;;;15422657;23;20024;-38
2023/03/15 10:40:48;;;;;;;7.80;1.80;;;6.20;99.90;;;;;;15424112;23;20020;-38
2023/03/15 10:47:01;;;;;;;6.57;1.30;;;6.30;99.90;;;;;;15424970;23;20042;-39
2023/03/15 10:53:15;;;;;;;7.70;1.42;;;6.40;99.90;;;;;;15426615;23;20052;-39
2023/03/15 10:59:20;;;;;;;5.88;1.00;;;6.30;99.90;;;;;;15427045;23;20447;-39
2023/03/15 11:05:22;;;;;;;;;;;6.60;99.90;;;;;;15423263;23;20027;-38
2023/03/15 11:11:24;;;;;;;7.75;1.40;;;6.90;99.90;;;;;;15421756;23;19926;-39
2023/03/15 11:17:29;;;;;;;6.05;1.38;;;6.80;99.90;;;;;;15420279;23;20103;-40
2023/03/15 11:23:36;;;;;;;4.60;1.13;;;6.40;99.90;;;;;;15424363;23;20104;-38
2023/03/15 11:29:45;;;;;;;5.13;1.02;;;6.70;99.90;;;;;;15422763;23;20082;-39
2023/03/15 11:35:48;;;;;;;7.07;1.10;;;6.90;99.90;;;;;;15417891;23;20048;-38
2023/03/15 11:41:55;;;;;;;6.35;1.02;;;6.60;99.90;;;;;;15420845;23;20017;-38
2023/03/15 11:48:05;;;;;;;5.75;0.80;;;7.00;99.90;;;;;;15423162;23;20102;-39
2023/03/15 11:54:16;;;;;;;5.43;0.95;;;6.90;99.90;;;;;;15419337;23;20247;-38
2023/03/15 12:00:30;;;;;;;4.78;0.70;;;6.80;99.90;;;;;;15419044;23;20056;-38
2023/03/15 12:06:35;;;;;;;4.40;1.20;;;6.70;99.90;;;;;;15418843;23;20029;-37
2023/03/15 12:12:37;;;;;;;3.78;0.90;;;7.30;99.90;;;;;;15422814;23;20020;-39
2023/03/15 12:18:43;;;;;;;4.50;1.02;;;6.90;99.90;;;;;;15422499;23;20024;-38
2023/03/15 12:24:46;;;;;;;4.43;0.77;;;7.00;99.90;;;;;;15420677;23;20370;-38
2023/03/15 12:30:55;;;;;;;3.72;0.77;;;6.90;99.90;;;;;;15420456;23;20024;-38
2023/03/15 12:37:05;;;;;;;5.07;0.90;;;6.40;99.90;;;;;;15422850;23;20447;-39
2023/03/15 12:43:10;;;;;;;3.20;0.70;;;6.90;99.90;;;;;;15424925;23;20020;-39
2023/03/15 12:49:18;;;;;;;3.92;0.90;;;7.70;99.90;;;;;;15425094;23;20698;-38
2023/03/15 12:55:20;;;;;;;1.95;0.60;;;8.20;99.90;;;;;;15425218;23;20147;-38
2023/03/15 13:01:25;;;;;;;2.67;0.47;;;7.90;99.90;;;;;;15425174;23;20052;-38
2023/03/15 13:07:52;;;;;;;2.25;0.60;;;6.40;99.90;;;;;;15427792;23;20095;-38
2023/03/15 13:14:36;;;;;;;1.52;0.55;;;5.60;99.90;;;;;;15420836;23;20418;-38
2023/03/15 13:20:57;;;;;;;1.33;0.60;;;5.60;99.90;;;;;;15359486;23;20060;-39
2023/03/15 13:27:07;;;;;;;4.05;0.88;;;5.80;99.90;;;;;;15425367;23;20028;-41
2023/03/15 13:33:28;;;;;;;4.95;0.55;;;6.30;99.90;;;;;;15425484;23;20028;-39
2023/03/15 13:39:32;;;;;;;2.90;0.70;;;6.40;99.90;;;;;;15423270;23;20016;-39
2023/03/15 13:45:36;;;;;;;4.93;0.73;;;6.20;99.90;;;;;;15423269;23;20028;-38
2023/03/15 13:51:39;;;;;;;;;;;6.20;99.90;;;;;;15426868;23;20025;-38
2023/03/15 13:57:41;;;;;;;4.25;0.93;;;6.60;99.90;;;;;;15424864;23;19916;-38
2023/03/15 14:04:00;;;;;;;7.05;1.35;;;6.60;99.90;;;;;;15423767;23;20024;-39
2023/03/15 14:10:40;;;;;;;7.18;0.85;;;6.50;99.90;;;;;;15422750;23;20067;-38
2023/03/15 14:16:45;;;;;;;5.88;1.20;;;6.30;99.90;;;;;;15047454;23;20118;-37
2023/03/15 14:23:10;;;;;;;4.65;0.85;;;6.40;99.90;;;;;;15423340;23;20040;-37
2023/03/15 14:29:21;;;;;;;6.55;0.90;;;6.30;99.90;;;;;;15425545;23;20016;-37
2023/03/15 14:35:40;;;;;;;4.50;0.95;;;6.50;99.90;;;;;;15424353;23;20025;-37
2023/03/15 14:41:42;;;;;;;6.00;1.00;;;6.70;99.90;;;;;;15422120;23;20021;-37
2023/03/15 14:47:51;;;;;;;6.15;1.20;;;6.80;99.90;;;;;;15422260;23;20297;-37
2023/03/15 14:54:00;;;;;;;6.27;1.00;;;6.40;99.90;;;;;;15422616;23;20028;-36
2023/03/15 15:00:03;;;;;;;5.30;0.93;;;6.10;99.90;;;;;;15426881;23;20021;-37
2023/03/15 15:06:12;;;;;;;3.67;0.98;;;6.20;99.90;;;;;;15421016;23;20025;-37
2023/03/15 15:12:14;;;;;;;6.32;0.85;;;6.60;99.90;;;;;;15421801;23;20095;-37
2023/03/15 15:18:16;;;;;;;6.30;1.48;;;6.80;99.90;;;;;;15421579;23;20017;-37
2023/03/15 15:24:21;;;;;;;3.35;0.80;;;6.90;99.90;;;;;;15420457;23;20028;-36
2023/03/15 15:30:27;;;;;;;7.43;1.00;;;6.90;99.90;;;;;;15424761;23;20387;-36
2023/03/15 15:36:34;;;;;;;4.82;0.80;;;7.20;99.90;;;;;;15426148;23;20020;-36
2023/03/15 15:42:36;;;;;;;7.22;0.95;;;7.00;99.90;;;;;;15420986;23;20067;-36
2023/03/15 15:48:39;;;;;;;6.15;1.00;;;7.20;99.90;;;;;;15429329;23;20478;-36
2023/03/15 15:54:42;;;;;;;3.95;0.85;;;7.30;99.90;;;;;;15426798;23;20024;-36
2023/03/15 16:00:44;;;;;;;6.90;1.08;;;7.20;99.90;;;;;;15427616;23;20356;-36
2023/03/15 16:06:54;;;;;;;5.80;1.13;;;7.20;99.90;;;;;;15425143;23;20654;-36
2023/03/15 16:12:56;;;;;;;4.22;0.80;;;7.30;99.90;;;;;;15428651;23;20029;-36
2023/03/15 16:18:58;;;;;;;4.25;0.80;;;7.20;99.90;;;;;;15429518;23;20028;-36
2023/03/15 16:25:00;;;;;;;4.32;1.00;;;6.90;99.90;;;;;;15430153;23;20479;-37
2023/03/15 16:31:03;;;;;;;5.60;0.93;;;6.70;99.90;;;;;;15426159;23;20016;-36
2023/03/15 16:37:05;;;;;;;3.97;0.75;;;6.50;99.90;;;;;;15430709;23;20359;-36
2023/03/15 16:43:10;;;;;;;2.50;0.68;;;6.30;99.90;;;;;;15430518;23;20095;-37
2023/03/15 16:49:12;;;;;;;4.95;0.90;;;6.20;99.90;;;;;;15431673;23;20048;-37
2023/03/15 16:55:23;;;;;;;5.23;0.80;;;6.10;99.90;;;;;;15432633;23;20035;-36
2023/03/15 17:01:25;;;;;;;5.18;1.40;;;6.00;99.90;;;;;;15434623;23;20466;-36
2023/03/15 17:07:34;;;;;;;4.55;1.17;;;5.70;99.90;;;;;;15430952;23;20031;-37
2023/03/15 17:13:39;;;;;;;3.83;0.80;;;5.40;99.90;;;;;;15430165;23;20039;-36
2023/03/15 17:19:42;;;;;;;5.82;0.95;;;5.10;99.90;;;;;;15432827;23;20039;-37
2023/03/15 17:25:44;;;;;;;5.97;1.35;;;4.80;99.90;;;;;;15428600;23;20099;-36
2023/03/15 17:31:46;;;;;;;5.13;1.15;;;4.60;99.90;;;;;;15432708;23;20051;-36
2023/03/15 17:37:49;;;;;;;7.95;1.33;;;4.40;99.90;;;;;;15430394;23;20024;-36
2023/03/15 17:43:51;;;;;;;8.75;1.17;;;4.20;99.90;;;;;;15427738;23;20055;-36
2023/03/15 17:49:53;;;;;;;7.30;1.48;;;4.00;99.90;;;;;;15431386;23;20104;-36
2023/03/15 17:55:55;;;;;;;4.32;1.00;;;4.00;99.90;;;;;;15430740;23;20035;-37
2023/03/15 18:01:56;;;;;;;4.65;1.10;;;4.00;99.90;;;;;;15429320;23;20122;-36
2023/03/15 18:07:58;;;;;;;4.03;1.10;;;3.90;99.90;;;;;;15429013;23;20111;-36
2023/03/15 18:14:02;;;;;;;6.25;1.13;;;3.80;99.90;;;;;;15427223;23;20027;-36
2023/03/15 18:20:07;;;;;;;1.98;0.90;;;3.80;99.90;;;;;;15431436;23;20016;-36
2023/03/15 18:26:10;;;;;;;6.90;1.38;;;3.80;99.90;;;;;;15388522;23;20079;-36
2023/03/15 18:32:12;;;;;;;8.15;1.10;;;3.70;99.90;;;;;;15426707;23;20025;-36
2023/03/15 18:38:15;;;;;;;6.10;0.93;;;3.70;99.90;;;;;;15424971;23;20519;-36
2023/03/15 18:44:17;;;;;;;7.72;1.40;;;3.60;99.90;;;;;;15425490;23;20043;-37
2023/03/15 18:50:20;;;;;;;8.25;1.30;;;3.50;99.90;;;;;;15425909;23;20063;-37
2023/03/15 18:56:25;;;;;;;5.88;1.27;;;3.50;99.90;;;;;;15423826;23;20052;-36
2023/03/15 19:02:27;;;;;;;6.68;1.58;;;3.40;99.90;;;;;;15427119;23;20799;-36
2023/03/15 19:08:29;;;;;;;6.05;1.40;;;3.40;99.90;;;;;;15428474;23;20020;-36
2023/03/15 19:14:31;;;;;;;7.32;1.40;;;3.40;99.90;;;;;;15424333;23;20359;-36
2023/03/15 19:20:33;;;;;;;4.47;1.40;;;3.40;99.90;;;;;;15427698;23;20442;-36
2023/03/15 19:26:35;;;;;;;6.07;1.10;;;3.40;99.90;;;;;;15425911;23;20021;-37
2023/03/15 19:32:39;;;;;;;6.15;1.20;;;3.40;99.90;;;;;;15403974;23;20073;-36
2023/03/15 19:38:41;;;;;;;5.07;1.15;;;3.40;99.90;;;;;;15419703;23;20343;-36
2023/03/15 19:44:46;;;;;;;3.60;1.20;;;3.30;99.90;;;;;;15420527;23;20083;-37
2023/03/15 19:50:49;;;;;;;4.45;1.20;;;3.30;99.90;;;;;;15428185;23;20027;-36
2023/03/15 19:56:52;;;;;;;6.20;1.60;;;3.30;99.90;;;;;;15423920;23;20044;-36
2023/03/15 20:02:54;;;;;;;2.72;1.15;;;3.30;99.90;;;;;;15426947;23;20382;-36
2023/03/15 20:08:56;;;;;;;5.22;1.17;;;3.30;99.90;;;;;;15426992;23;20110;-36
2023/03/15 20:14:58;;;;;;;7.38;1.52;;;3.30;99.90;;;;;;15421329;23;20029;-36
2023/03/15 20:21:00;;;;;;;10.40;2.80;;;3.20;99.90;;;;;;15426618;23;20531;-36
2023/03/15 20:27:02;;;;;;;5.82;1.85;;;3.10;99.90;;;;;;15422648;23;20112;-37
2023/03/15 20:33:05;;;;;;;5.40;1.60;;;3.10;99.90;;;;;;15425254;23;20521;-36
2023/03/15 20:39:07;;;;;;;6.95;1.50;;;3.00;99.90;;;;;;15425258;23;20028;-36
2023/03/15 20:45:11;;;;;;;5.15;1.55;;;2.90;99.90;;;;;;15424653;23;20060;-36
2023/03/15 20:51:14;;;;;;;5.32;1.75;;;2.90;99.90;;;;;;15425200;23;20020;-36
2023/03/15 20:57:16;;;;;;;4.43;1.20;;;2.90;99.90;;;;;;15428292;23;20454;-37
2023/03/15 21:03:20;;;;;;;4.40;1.25;;;2.90;99.90;;;;;;15430469;23;20025;-36
2023/03/15 21:09:21;;;;;;;5.97;1.30;;;2.90;99.90;;;;;;15430622;23;20028;-36
2023/03/15 21:15:23;;;;;;;6.07;1.40;;;2.80;99.90;;;;;;15432385;23;20429;-36
2023/03/15 21:21:25;;;;;;;4.30;1.38;;;2.80;99.90;;;;;;15428364;23;20021;-36
2023/03/15 21:27:27;;;;;;;5.93;1.45;;;2.70;99.90;;;;;;15428472;23;20052;-36
2023/03/15 21:33:30;;;;;;;5.88;1.27;;;2.70;99.90;;;;;;15429347;23;20106;-37
2023/03/15 21:39:32;;;;;;;5.20;1.15;;;2.70;99.90;;;;;;15430937;23;20147;-36
2023/03/15 21:45:33;;;;;;;5.03;1.60;;;2.60;99.90;;;;;;15429799;23;20032;-37
2023/03/15 21:51:36;;;;;;;4.80;1.17;;;2.50;99.90;;;;;;15431807;23;20308;-35
2023/03/15 21:57:38;;;;;;;8.05;1.50;;;2.50;99.90;;;;;;15427171;23;20096;-36
2023/03/15 22:03:41;;;;;;;5.70;1.60;;;2.50;99.90;;;;;;15429168;23;20054;-36
2023/03/15 22:09:43;;;;;;;6.80;1.42;;;2.30;99.90;;;;;;15425714;23;20027;-36
2023/03/15 22:15:45;;;;;;;6.00;1.65;;;2.30;99.90;;;;;;15416672;23;20474;-36
2023/03/15 22:21:51;;;;;;;5.00;1.20;;;2.20;99.90;;;;;;15412587;23;20612;-36
2023/03/15 22:27:53;;;;;;;8.35;2.00;;;2.20;99.90;;;;;;15413057;23;20426;-36
2023/03/15 22:33:55;;;;;;;2.67;1.00;;;2.20;99.90;;;;;;15410268;23;20024;-36
2023/03/15 22:39:57;;;;;;;6.03;1.45;;;2.20;99.90;;;;;;15413117;23;20520;-36
2023/03/15 22:45:58;;;;;;;6.95;1.33;;;2.20;99.90;;;;;;15408380;23;20629;-36
2023/03/15 22:52:03;;;;;;;5.38;1.27;;;2.20;99.90;;;;;;15412549;23;20115;-36
2023/03/15 22:58:05;;;;;;;4.07;1.23;;;2.10;99.90;;;;;;15411158;23;20447;-36
2023/03/15 23:04:07;;;;;;;5.10;1.48;;;2.10;99.90;;;;;;15409949;23;20470;-36
2023/03/15 23:10:11;;;;;;;5.03;1.30;;;2.10;99.90;;;;;;15411159;23;20028;-36
2023/03/15 23:16:14;;;;;;;6.68;1.98;;;2.20;99.90;;;;;;15408429;23;20347;-36
2023/03/15 23:22:16;;;;;;;3.55;1.20;;;2.30;99.90;;;;;;15425228;23;20028;-36
2023/03/15 23:28:20;;;;;;;4.28;1.20;;;2.30;99.90;;;;;;15427984;23;20119;-35
2023/03/15 23:34:22;;;;;;;8.35;1.40;;;2.30;99.90;;;;;;15424716;23;20028;-36
2023/03/15 23:40:24;;;;;;;3.97;1.08;;;2.30;99.90;;;;;;15426735;23;20052;-36
2023/03/15 23:46:27;;;;;;;8.82;1.25;;;2.20;99.90;;;;;;15426996;23;20211;-36
2023/03/15 23:52:29;;;;;;;4.32;1.30;;;2.10;99.90;;;;;;15426427;23;20540;-36
2023/03/15 23:58:31;;;;;;;4.55;1.27;;;2.00;99.90;;;;;;15429238;23;20090;-36
